| time (UTC) | temp F | wind direction | speed MPH | gust MPH | rain 1hr in | rain 24hr in | rain mn in | humidity % | barometer mb |
| 20260507201517 | 73 | 13 | 1.0 | 4.0 | 0.00 | 0.01 | 0.00 | 20 | 1013.2 |
| 20260507200018 | 73 | 19 | 0.0 | 4.0 | 0.00 | 0.01 | 0.00 | 22 | 1013.5 |
| 20260507194512 | 72 | 24 | 0.0 | 3.0 | 0.00 | 0.05 | 0.00 | 21 | 1013.8 |
| 20260507193007 | 71 | 24 | 1.0 | 4.0 | 0.00 | 0.05 | 0.00 | 23 | 1014.1 |
| 20260507191505 | 71 | 17 | 0.0 | 3.0 | 0.00 | 0.05 | 0.00 | 30 | 1014.3 |
| 20260507190003 | 69 | 15 | 1.0 | 5.0 | 0.00 | 0.05 | 0.00 | 25 | 1014.8 |
| 20260507184606 | 69 | 360 | 2.0 | 5.0 | 0.00 | 0.09 | 0.00 | 25 | 1015.1 |
| 20260507183055 | 68 | 29 | 1.0 | 7.0 | 0.00 | 0.09 | 0.00 | 29 | 1015.5 |
| 20260507181552 | 67 | 291 | 2.0 | 10.0 | 0.00 | 0.09 | 0.00 | 29 | 1015.9 |
| 20260507180051 | 66 | 360 | 1.0 | 9.0 | 0.00 | 0.09 | 0.00 | 31 | 1016.2 |
| 20260507174549 | 65 | 277 | 2.0 | 11.0 | 0.00 | 0.14 | 0.00 | 31 | 1016.6 |
| 20260507173042 | 64 | 195 | 3.0 | 9.0 | 0.00 | 0.14 | 0.00 | 33 | 1017.0 |
| 20260507171546 | 64 | 282 | 2.0 | 13.0 | 0.00 | 0.14 | 0.00 | 34 | 1017.1 |
| 20260507170039 | 63 | 323 | 2.0 | 9.0 | 0.00 | 0.14 | 0.00 | 36 | 1017.4 |
| 20260507164532 | 61 | 33 | 3.0 | 9.0 | 0.00 | 0.18 | 0.00 | 38 | 1017.4 |
| 20260507163027 | 60 | 26 | 3.0 | 7.0 | 0.00 | 0.18 | 0.00 | 41 | 1017.7 |
| 20260507161523 | 59 | 360 | 2.0 | 9.0 | 0.00 | 0.18 | 0.00 | 41 | 1017.8 |
| 20260507160024 | 57 | 336 | 2.0 | 7.0 | 0.00 | 0.18 | 0.00 | 44 | 1018.3 |
| 20260507154528 | 56 | 355 | 2.0 | 6.0 | 0.00 | 0.19 | 0.00 | 42 | 1018.4 |
| 20260507153028 | 54 | 355 | 2.0 | 7.0 | 0.00 | 0.19 | 0.00 | 45 | 1018.8 |
| 20260507151507 | 53 | 17 | 2.0 | 5.0 | 0.00 | 0.19 | 0.00 | 46 | 1019.1 |
| 20260507150003 | 51 | 294 | 3.0 | 8.0 | 0.00 | 0.19 | 0.00 | 48 | 1019.3 |
| 20260507144603 | 50 | 42 | 2.0 | 8.0 | 0.00 | 0.20 | 0.00 | 54 | 1019.2 |
| 20260507143110 | 48 | 48 | 1.0 | 5.0 | 0.00 | 0.20 | 0.00 | 56 | 1019.2 |
| 20260507141552 | 47 | 47 | 1.0 | 5.0 | 0.00 | 0.20 | 0.00 | 58 | 1019.4 |
| 20260507140047 | 45 | 44 | 0.0 | 7.0 | 0.00 | 0.20 | 0.00 | 63 | 1019.7 |
| 20260507134543 | 42 | 360 | 0.0 | 3.0 | 0.00 | 0.21 | 0.00 | 69 | 1019.8 |
| 20260507133038 | 41 | 355 | 0.0 | 4.0 | 0.00 | 0.21 | 0.00 | 72 | 1019.9 |
| 20260507131538 | 39 | 5 | 1.0 | 4.0 | 0.00 | 0.21 | 0.00 | 78 | 1019.9 |
| 20260507130038 | 36 | 350 | 0.0 | 5.0 | 0.00 | 0.21 | 0.00 | 84 | 1019.8 |
| 20260507124529 | 35 | 348 | 0.0 | 1.0 | 0.00 | 0.23 | 0.00 | 88 | 1019.7 |
| 20260507123025 | 35 | 348 | 0.0 | 2.0 | 0.00 | 0.23 | 0.00 | 89 | 1019.8 |
| 20260507121522 | 34 | 348 | 0.0 | 4.0 | 0.00 | 0.23 | 0.00 | 93 | 1019.6 |
| 20260507120022 | 32 | 316 | 0.0 | 1.0 | 0.00 | 0.23 | 0.00 | 95 | 1019.6 |
| 20260507114517 | 31 | 316 | 0.0 | 3.0 | 0.00 | 0.24 | 0.00 | 95 | 1019.6 |
| 20260507113015 | 30 | 312 | 0.0 | 0.0 | 0.00 | 0.24 | 0.00 | 94 | 1019.9 |
| 20260507111514 | 30 | 312 | 0.0 | 0.0 | 0.00 | 0.24 | 0.00 | 94 | 1019.7 |
| 20260507110013 | 30 | 312 | 0.0 | 0.0 | 0.00 | 0.24 | 0.00 | 93 | 1019.9 |
| 20260507104511 | 30 | 312 | 0.0 | 0.0 | 0.00 | 0.24 | 0.00 | 93 | 1019.9 |
| 20260507103020 | 30 | 312 | 0.0 | 0.0 | 0.00 | 0.24 | 0.00 | 93 | 1020.1 |
| 20260507101508 | 30 | 312 | 0.0 | 0.0 | 0.00 | 0.24 | 0.00 | 93 | 1020.1 |
| 20260507100006 | 30 | 312 | 0.0 | 0.0 | 0.00 | 0.24 | 0.00 | 93 | 1020.4 |
| 20260507094504 | 30 | 312 | 0.0 | 2.0 | 0.00 | 0.25 | 0.00 | 93 | 1020.4 |
| 20260507093004 | 31 | 312 | 0.0 | 1.0 | 0.00 | 0.25 | 0.00 | 93 | 1020.7 |
| 20260507091503 | 31 | 312 | 0.0 | 1.0 | 0.00 | 0.25 | 0.00 | 93 | 1020.9 |
| 20260507090003 | 31 | 312 | 0.0 | 1.0 | 0.00 | 0.25 | 0.00 | 93 | 1020.7 |
| 20260507084602 | 31 | 312 | 0.0 | 2.0 | 0.00 | 0.27 | 0.00 | 94 | 1020.7 |
| 20260507083102 | 31 | 312 | 0.0 | 3.0 | 0.00 | 0.27 | 0.00 | 94 | 1020.7 |
| 20260507081556 | 31 | 310 | 0.0 | 1.0 | 0.00 | 0.27 | 0.00 | 93 | 1020.7 |
| 20260507080108 | 31 | 237 | 0.0 | 0.0 | 0.00 | 0.27 | 0.00 | 93 | 1020.9 |
| 20260507074554 | 31 | 237 | 0.0 | 0.0 | 0.00 | 0.28 | 0.00 | 93 | 1020.8 |
| 20260507073051 | 31 | 237 | 0.0 | 0.0 | 0.00 | 0.28 | 0.00 | 93 | 1021.0 |
| 20260507071607 | 32 | 237 | 0.0 | 1.0 | 0.00 | 0.28 | 0.00 | 93 | 1021.2 |
| 20260507070051 | 31 | 237 | 0.0 | 0.0 | 0.00 | 0.28 | 0.00 | 93 | 1021.1 |
| 20260507064549 | 32 | 237 | 0.0 | 0.0 | 0.00 | 0.28 | 0.00 | 93 | 1021.2 |
| 20260507063047 | 32 | 237 | 0.0 | 0.0 | 0.00 | 0.28 | 0.00 | 93 | 1021.4 |
| 20260507061545 | 32 | 237 | 0.0 | 0.0 | 0.00 | 0.28 | 0.00 | 93 | 1021.2 |
| 20260507060043 | 32 | 237 | 0.0 | 0.0 | 0.00 | 0.28 | 0.00 | 92 | 1021.2 |
| 20260507054541 | 32 | 237 | 0.0 | 0.0 | 0.00 | 0.28 | 0.28 | 92 | 1021.0 |
| 20260507053109 | 33 | 237 | 0.0 | 0.0 | 0.00 | 0.28 | 0.28 | 92 | 1020.9 |
| 20260507051543 | 33 | 237 | 0.0 | 0.0 | 3.14 | 0.00 | 0.28 | 92 | 1020.9 |
| 20260507050042 | 33 | 237 | 0.0 | 0.0 | 0.00 | 0.28 | 0.28 | 92 | 1021.0 |
| 20260507044537 | 34 | 237 | 0.0 | 0.0 | 0.00 | 0.28 | 0.28 | 91 | 1021.0 |
| 20260507043037 | 34 | 237 | 0.0 | 0.0 | 0.00 | 0.28 | 0.28 | 91 | 1020.9 |
| 20260507041533 | 34 | 237 | 0.0 | 0.0 | 0.00 | 0.28 | 0.28 | 91 | 1020.8 |
| 20260507040033 | 35 | 237 | 0.0 | 0.0 | 0.00 | 0.28 | 0.28 | 90 | 1020.6 |
| 20260507034537 | 35 | 237 | 0.0 | 0.0 | 0.00 | 0.31 | 0.28 | 90 | 1020.6 |
| 20260507033040 | 36 | 237 | 0.0 | 0.0 | 0.00 | 0.31 | 0.28 | 89 | 1020.6 |
| 20260507031531 | 36 | 237 | 0.0 | 0.0 | 0.00 | 0.31 | 0.28 | 88 | 1020.7 |
| 20260507030031 | 37 | 237 | 0.0 | 0.0 | 0.00 | 0.31 | 0.28 | 87 | 1020.6 |
| 20260507024533 | 38 | 237 | 0.0 | 0.0 | 0.00 | 0.33 | 0.28 | 86 | 1020.4 |
| 20260507023034 | 39 | 237 | 0.0 | 0.0 | 0.00 | 0.33 | 0.28 | 84 | 1020.3 |
| 20260507021531 | 40 | 237 | 0.0 | 0.0 | 0.00 | 0.33 | 0.28 | 83 | 1020.2 |
| 20260507020028 | 42 | 237 | 0.0 | 0.0 | 0.00 | 0.33 | 0.28 | 81 | 1020.3 |
| 20260507014528 | 43 | 237 | 0.0 | 0.0 | 0.00 | 0.36 | 0.28 | 80 | 1020.3 |
| 20260507013027 | 44 | 237 | 0.0 | 0.0 | 0.00 | 0.36 | 0.28 | 79 | 1020.3 |
| 20260507011533 | 45 | 237 | 0.0 | 0.0 | 0.00 | 0.36 | 0.28 | 78 | 1020.3 |
| 20260507010027 | 45 | 237 | 0.0 | 2.0 | 0.00 | 0.36 | 0.28 | 80 | 1020.1 |
| 20260507004535 | 45 | 238 | 0.0 | 0.0 | 0.00 | 0.41 | 0.28 | 79 | 1020.1 |
| 20260507003025 | 46 | 236 | 0.0 | 1.0 | 0.00 | 0.41 | 0.28 | 79 | 1020.1 |
| 20260507001524 | 47 | 237 | 0.0 | 1.0 | 0.00 | 0.41 | 0.28 | 77 | 1020.2 |
| 20260507000023 | 47 | 236 | 0.0 | 1.0 | 0.00 | 0.41 | 0.28 | 80 | 1020.3 |
| 20260506234519 | 45 | 236 | 0.0 | 3.0 | 0.01 | 0.43 | 0.28 | 84 | 1020.1 |
| 20260506233015 | 44 | 236 | 0.0 | 4.0 | 0.01 | 0.43 | 0.28 | 82 | 1020.1 |
| 20260506231513 | 44 | 234 | 1.0 | 4.0 | 0.01 | 0.43 | 0.28 | 87 | 1020.3 |
| 20260506230010 | 42 | 64 | 0.0 | 3.0 | 0.01 | 0.43 | 0.28 | 90 | 1020.2 |
| 20260506224510 | 41 | 63 | 1.0 | 3.0 | 0.00 | 0.42 | 0.28 | 87 | 1020.3 |
| 20260506223008 | 43 | 63 | 0.0 | 0.0 | 0.00 | 0.42 | 0.28 | 89 | 1020.2 |
| 20260506221509 | 42 | 63 | 0.0 | 1.0 | 0.00 | 0.42 | 0.28 | 90 | 1020.2 |
| 20260506220020 | 42 | 63 | 0.0 | 1.0 | 0.00 | 0.42 | 0.28 | 90 | 1020.1 |
| 20260506214507 | 42 | 63 | 0.0 | 1.0 | 0.00 | 0.42 | 0.28 | 91 | 1020.1 |
| 20260506213006 | 42 | 63 | 0.0 | 0.0 | 0.00 | 0.42 | 0.28 | 91 | 1020.4 |
| 20260506211507 | 42 | 63 | 0.0 | 1.0 | 0.00 | 0.42 | 0.28 | 90 | 1020.5 |
| 20260506210010 | 43 | 63 | 0.0 | 1.0 | 0.00 | 0.42 | 0.28 | 91 | 1020.0 |
| 20260506204504 | 43 | 63 | 0.0 | 1.0 | 0.01 | 0.42 | 0.28 | 93 | 1020.1 |
| 20260506203001 | 42 | 63 | 0.0 | 2.0 | 0.02 | 0.42 | 0.28 | 94 | 1020.5 |
| 20260506201558 | 41 | 63 | 0.0 | 2.0 | 0.03 | 0.42 | 0.28 | 95 | 1020.5 |